Waterloo Regional Airport Waterloo US
ICAO: KALO
IATA: ALO
Category: Medium
Scheduled Services: Yes

Elevation: 873 ft
TransAlt. 18000 ft.

Airport Communications:
APP/DEP:118.9
ATIS:120.65
CTAF:118.1
GND:121.9
ARNG OPS:36.7
FORT DODGE RDO:122.05
TWR:118.1
UNICOM:122.95

KALO Zoom In..

If you have problems with the map follow the link
https://www.worldairports.se/pages/airport.php?
ICAO=KALO

Runways:

(A) RW 06 length 5400 ft width 130 ft
---- / hdg 65

(B) RW 12 length 8399 ft width 150 ft
ILS 111.70 / hdg 125

(C) RW 18 length 6003 ft width 150 ft
---- / hdg 185

(D) RW 24 length 5400 ft width 130 ft
---- / hdg 245

(E) RW 30 length 8399 ft width 150 ft
---- / hdg 305

(F) RW 36 length 6003 ft width 150 ft
---- / hdg 5

Location; KALO
Day. 12 / Time. 09.54 Zulu
* Altimeter: 30.16
* Temperature: -07° c. -19.4°f.
* Wind from: 130° Speed 13 kn.
Dewpoint: -09° c.
Visibility: 6 Statute Miles.
Clouds: Broken 4200 ft.
Clouds: Overcast 6000 ft.
Conditions: Haze.

KALO 120954Z AUTO 13013KT 6SM HZ BKN042 OVC060 M07/M09 A3016 RMK AO2 SLP229 T10671094


Wind From 130°
Speed 13 kn.

 
 
jpsmedia worldairports.se 2019   terms of use